Aeroclub de GuadalajaraInformación meteorológica

Información de METAR

 

LEMD - Madrid / Barajas
Distancia desde la estación: SO 49km
Actualización: 14/12/2017 19:30
Muy nuboso
Muy nuboso
 Viento del OSO
Viento: OSO 28 km/h
Temperatura: 11°C
Rocío: 10°C
Humedad: 94%
Barómetro: 1016 hPa
Nubes: Muy nuboso
Visibilidad: 10 km
Detalle de Nubes: Muy nuboso 1372 m
2017/12/14 18:30 LEMD 141830Z 24015KT 210V270 9999 BKN045 11/10 Q1016 NOSIG
LECV - Madrid / Colmenar Viejo
Distancia desde la estación: OSO 47km
Actualización: 14/12/2017 19:00
Patches of fog, Muy nuboso
Patches of fog, Muy nuboso
 Viento del SO
Viento: SO 24 km/h
Temperatura: 9°C
Wind Chill: 6°C
Rocío: 8°C
Humedad: 94%
Barómetro: 1016 hPa
Resumen: Patches of Fog
Nubes: Muy nuboso
Visibilidad: 10 km
Detalle de Nubes: Parcialmente nuboso 30 m
Muy nuboso 762 m
2017/12/14 18:00 LECV 141800Z 23013KT 9999 3000E BCFG SCT001 BKN025 09/08 Q1016
LETO - Madrid / Torrejon
Distancia desde la estación: SSO 45km
Actualización: 14/12/2017 19:00
Muy nuboso
Muy nuboso
 Viento del SSO
Viento: SSO 22 km/h
Temperatura: 10°C
Wind Chill: 7°C
Rocío: 10°C
Humedad: 100%
Barómetro: 1017 hPa
Nubes: Muy nuboso
Visibilidad: 10 km
Detalle de Nubes: Parcialmente nuboso 366 m
Muy nuboso 1372 m
2017/12/14 18:00 LETO 141800Z 20012KT 9999 SCT012 BKN045 10/10 Q1017 NOSIG
 
LEVS - Madrid / Cuatro vientos
Distancia desde la estación: SO 70km
Actualización: 14/12/2017 19:30
Muy nuboso
Muy nuboso
 Viento del SO
Viento: SO 26 km/h
Temperatura: 12°C
Rocío: 11°C
Humedad: 94%
Barómetro: 1017 hPa
Nubes: Muy nuboso
Visibilidad: 10 km
Detalle de Nubes: Muy nuboso 183 m
2017/12/14 18:30 LEVS 141830Z 23014KT 9999 BKN006 12/11 Q1017
LEGT - Madrid / Getafe
Distancia desde la estación: SSO 74km
Actualización: 14/12/2017 19:00
Muy nuboso
Muy nuboso
 Viento del OSO
Viento: OSO 24 km/h
Temperatura: 10°C
Wind Chill: 7°C
Rocío: 9°C
Humedad: 94%
Barómetro: 1017 hPa
Nubes: Muy nuboso
Visibilidad: 10 km
Detalle de Nubes: Poco nuboso 152 m
Parcialmente nuboso 244 m
Muy nuboso 1524 m
2017/12/14 18:00 LEGT 141800Z 24013KT 9999 FEW005 SCT008 BKN050 10/09 Q1017
LEBL - Barcelona / Aeropuerto
Distancia desde la estación: E 447km
Actualización: 14/12/2017 19:30
Poco nuboso
Poco nuboso
 Viento del OSO
Viento: OSO 4 km/h
Temperatura: 14°C
Rocío: 8°C
Humedad: 67%
Barómetro: 1012 hPa
Nubes: Poco nuboso
Visibilidad: 10 km
Detalle de Nubes: Poco nuboso 914 m
2017/12/14 18:30 LEBL 141830Z 25002KT 9999 FEW030 14/08 Q1012 NOSIG
 
LEVC - Valencia /Aeropuerto
Distancia desde la estación: ESE 280km
Actualización: 14/12/2017 19:30
Poco nuboso
Poco nuboso
 Viento del O
Viento: O 31 km/h
Temperatura: 15°C
Rocío: 8°C
Humedad: 63%
Barómetro: 1015 hPa
Nubes: Poco nuboso
Visibilidad: 10 km
Detalle de Nubes: Poco nuboso 762 m
2017/12/14 18:30 LEVC 141830Z 27017KT 9999 FEW025 15/08 Q1015 NOSIG
LEZG - Zaragoza / Aeropuerto
Distancia desde la estación: ENE 206km
Actualización: 14/12/2017 19:30
Muy nuboso
Muy nuboso
 Viento del ONO
Viento: ONO 9 km/h
Temperatura: 11°C
Rocío: 8°C
Humedad: 82%
Barómetro: 1012 hPa
Nubes: Muy nuboso
Visibilidad: 10 km
Detalle de Nubes: Poco nuboso 1067 m
Muy nuboso 2438 m
2017/12/14 18:30 LEZG 141830Z 30005KT 9999 FEW035 BKN080 11/08 Q1012
LEGR - Granada / Aeropuerto
Distancia desde la estación: S 411km
Actualización: 14/12/2017 19:30
Muy nuboso
Muy nuboso
 Viento del calm
Viento: Calma
Temperatura: 10°C
Rocío: 8°C
Humedad: 88%
Barómetro: 1022 hPa
Nubes: Muy nuboso
Visibilidad: 10 km
Detalle de Nubes: Muy nuboso 762 m
2017/12/14 18:30 LEGR 141830Z 00000KT 9999 BKN025 10/08 Q1022